Time;durP1;ratioP1;P1;durP2;ratioP2;P2;SDS_P1;SDS_P2;PMS_P1;PMS_P2;Temp;Humidity;BMP_temperature;BMP_pressure;BME280_temperature;BME280_humidity;BME280_pressure;Samples;Min_cycle;Max_cycle;Signal;HPM_P1;HPM_P2
2024/01/07 00:02:24;;;;;;;29.70;14.90;;;0.40;99.90;;;;;;4928460;29;20110;-94
2024/01/07 00:04:50;;;;;;;26.92;14.60;;;-0.30;99.90;;;;;;4923451;29;20044;-95
2024/01/07 00:07:16;;;;;;;26.00;13.90;;;1.10;99.90;;;;;;4921463;29;20046;-95
2024/01/07 00:09:45;;;;;;;25.40;13.53;;;1.10;99.90;;;;;;4937918;23;20130;-95
2024/01/07 00:12:24;;;;;;;24.40;13.40;;;-0.40;99.90;;;;;;4940405;29;20047;-95
2024/01/07 00:15:09;;;;;;;25.77;13.17;;;0.00;99.90;;;;;;4939493;29;20054;-95
2024/01/07 00:18:13;;;;;;;26.33;13.80;;;-0.10;99.90;;;;;;4940605;29;20118;-96
2024/01/07 00:20:57;;;;;;;24.85;13.45;;;0.30;99.90;;;;;;4941477;29;20484;-96
2024/01/07 00:23:25;;;;;;;;;;;0.10;99.90;;;;;;4941504;29;20052;-96
2024/01/07 00:25:51;;;;;;;25.53;13.20;;;-0.70;99.90;;;;;;4941931;29;19922;-95
2024/01/07 00:28:17;;;;;;;22.83;12.00;;;-0.50;99.90;;;;;;4972768;23;20066;-95
2024/01/07 00:35:01;;;;;;;22.50;12.13;;;0.70;99.90;;;;;;4938258;29;20074;-96
2024/01/07 00:37:27;;;;;;;20.53;10.67;;;0.50;99.90;;;;;;4921707;29;20070;-96
2024/01/07 00:40:07;;;;;;;20.50;9.77;;;0.90;99.90;;;;;;4935932;29;20472;-95
2024/01/07 00:42:48;;;;;;;22.80;10.07;;;-0.50;99.90;;;;;;4940091;29;20093;-96
2024/01/07 00:45:14;;;;;;;20.70;10.60;;;0.00;99.90;;;;;;4941993;29;20074;-96
2024/01/07 00:47:43;;;;;;;20.60;10.70;;;-0.80;99.90;;;;;;4945940;29;20031;-96
2024/01/07 00:50:12;;;;;;;19.07;9.83;;;0.00;99.90;;;;;;4950010;29;20134;-96
2024/01/07 00:52:42;;;;;;;20.60;10.37;;;-0.90;99.90;;;;;;4952557;29;20079;-96
2024/01/07 00:55:29;;;;;;;57.17;12.20;;;0.00;99.90;;;;;;4910978;29;20055;-96
2024/01/07 01:02:42;;;;;;;19.67;9.90;;;0.50;99.90;;;;;;4926683;29;20488;-95
2024/01/07 01:05:15;;;;;;;19.37;10.03;;;-1.00;99.90;;;;;;5065161;23;20039;31
2024/01/07 01:07:46;;;;;;;22.08;11.10;;;-0.60;99.90;;;;;;4912367;29;20044;-95
2024/01/07 01:10:17;;;;;;;21.33;9.90;;;0.00;99.90;;;;;;4952834;29;20051;-96
2024/01/07 01:16:08;;;;;;;20.00;10.50;;;-1.30;99.90;;;;;;4956350;28;20408;-95
2024/01/07 01:18:44;;;;;;;20.00;9.70;;;-1.00;99.90;;;;;;4952447;29;20050;-96
2024/01/07 01:21:13;;;;;;;18.17;9.37;;;0.70;99.90;;;;;;4949170;29;20090;-96
2024/01/07 01:23:42;;;;;;;20.23;9.67;;;0.90;99.90;;;;;;4949473;29;20063;-96
2024/01/07 01:26:08;;;;;;;18.40;10.10;;;0.10;99.90;;;;;;4949227;29;20052;-96
2024/01/07 01:28:36;;;;;;;19.27;10.03;;;0.60;99.90;;;;;;5062534;23;20051;-96
2024/01/07 01:31:06;;;;;;;19.43;9.90;;;-0.50;99.90;;;;;;4934733;29;20130;-96
2024/01/07 01:33:38;;;;;;;19.15;10.23;;;-1.20;99.90;;;;;;4956100;29;20050;-96
2024/01/07 01:36:13;;;;;;;20.43;10.63;;;0.90;99.90;;;;;;5254721;23;20059;-96
2024/01/07 01:39:22;;;;;;;19.83;10.13;;;-0.20;99.90;;;;;;5119824;23;20055;-96
2024/01/07 01:41:53;;;;;;;18.83;10.40;;;-1.00;99.90;;;;;;4975270;28;20074;-96
2024/01/07 01:44:19;;;;;;;22.37;10.83;;;-0.30;99.90;;;;;;4974521;28;20038;-96
2024/01/07 01:47:14;;;;;;;19.80;10.20;;;-0.70;99.90;;;;;;4965465;28;20050;-96
2024/01/07 01:49:40;;;;;;;21.17;10.63;;;-0.40;99.90;;;;;;4963326;23;20121;-96
2024/01/07 01:55:47;;;;;;;22.58;11.32;;;-0.60;99.90;;;;;;4927011;29;20048;-96
2024/01/07 01:58:13;;;;;;;23.27;11.30;;;-0.10;99.90;;;;;;4868549;29;20064;-96
2024/01/07 02:00:43;;;;;;;20.67;11.07;;;0.20;99.90;;;;;;4946149;23;20051;-96
2024/01/07 02:03:09;;;;;;;21.87;11.23;;;0.00;99.90;;;;;;4952083;29;20082;-96
2024/01/07 02:05:38;;;;;;;22.50;11.73;;;-0.50;99.90;;;;;;4949849;29;20036;-96
2024/01/07 02:10:43;;;;;;;20.40;10.87;;;-0.50;99.90;;;;;;4989404;23;20069;-96
2024/01/07 02:13:15;;;;;;;24.37;11.87;;;-0.30;99.90;;;;;;4927718;29;20059;-96
2024/01/07 02:16:03;;;;;;;22.47;11.53;;;0.80;99.90;;;;;;4927947;29;20102;-96
2024/01/07 02:18:43;;;;;;;20.20;10.77;;;0.80;99.90;;;;;;4931274;29;20071;-95
2024/01/07 02:21:31;;;;;;;;;;;;;;;;;;;;;
2024/01/07 02:24:30;;;;;;;20.33;9.93;;;0.90;99.90;;;;;;4964208;23;20060;-96
2024/01/07 02:27:08;;;;;;;19.10;9.73;;;-0.70;99.90;;;;;;4923275;29;20048;-96
2024/01/07 02:29:34;;;;;;;16.37;9.17;;;-0.50;99.90;;;;;;4925117;29;20114;-96
2024/01/07 02:31:59;;;;;;;18.83;9.47;;;-0.20;99.90;;;;;;4925876;29;20040;-95
2024/01/07 02:34:44;;;;;;;18.17;9.50;;;-0.50;99.90;;;;;;4927156;29;20048;-96
2024/01/07 02:37:37;;;;;;;17.77;9.50;;;1.90;99.90;;;;;;4927679;29;20047;-96
2024/01/07 02:40:09;;;;;;;18.00;9.17;;;-0.50;99.90;;;;;;4924213;29;20050;-95
2024/01/07 02:42:59;;;;;;;18.57;9.70;;;-0.70;99.90;;;;;;4950423;23;20074;-95
2024/01/07 02:45:44;;;;;;;19.40;9.63;;;0.70;99.90;;;;;;4940775;28;20055;-96
2024/01/07 02:48:22;;;;;;;18.00;9.27;;;-0.60;99.90;;;;;;4940721;29;20427;-96
2024/01/07 02:51:00;;;;;;;18.83;9.73;;;0.80;99.90;;;;;;4955093;28;20047;-96
2024/01/07 02:53:51;;;;;;;19.63;9.87;;;-0.40;99.90;;;;;;4973392;28;20042;-96
2024/01/07 02:56:19;;;;;;;18.70;9.83;;;-1.70;99.90;;;;;;5038917;23;20159;-96
2024/01/07 02:59:53;;;;;;;19.17;9.30;;;-1.00;99.90;;;;;;4927395;29;20056;-96
2024/01/07 03:02:23;;;;;;;18.08;9.55;;;0.90;99.90;;;;;;4913426;29;20032;-96
2024/01/07 03:04:49;;;;;;;17.57;9.40;;;-0.40;99.90;;;;;;4916514;29;20431;-96
2024/01/07 03:07:33;;;;;;;16.27;8.83;;;-1.00;99.90;;;;;;4939409;29;20069;-96
2024/01/07 03:09:59;;;;;;;17.27;9.60;;;-0.90;99.90;;;;;;4948273;23;20047;-96
2024/01/07 03:12:31;;;;;;;17.50;9.07;;;-0.80;99.90;;;;;;4958407;28;20051;-96
2024/01/07 03:15:08;;;;;;;17.37;8.87;;;-1.00;99.90;;;;;;4958999;28;20154;-96
2024/01/07 03:25:11;;;;;;;19.20;10.63;;;-0.70;99.90;;;;;;4998617;28;20045;-96
2024/01/07 03:27:36;;;;;;;18.77;9.67;;;-0.70;99.90;;;;;;4977611;23;20051;-96
2024/01/07 03:31:03;;;;;;;19.03;9.50;;;-1.00;99.90;;;;;;5013177;23;20059;-96
2024/01/07 03:34:38;;;;;;;19.00;9.23;;;-1.50;99.90;;;;;;4939320;29;20058;-96
2024/01/07 03:37:06;;;;;;;18.05;8.52;;;-0.90;99.90;;;;;;4920666;29;20060;-96
2024/01/07 03:39:37;;;;;;;19.37;8.80;;;-0.90;99.90;;;;;;4958315;23;20083;-96
2024/01/07 03:42:03;;;;;;;18.90;9.13;;;1.20;99.90;;;;;;4946237;23;20052;-96
2024/01/07 03:44:34;;;;;;;18.27;9.23;;;-0.70;99.90;;;;;;4936155;28;20054;-96
2024/01/07 03:47:00;;;;;;;17.87;9.13;;;-1.20;99.90;;;;;;4936203;29;20040;-94
2024/01/07 03:49:29;;;;;;;16.80;8.43;;;-1.00;99.90;;;;;;4935755;29;20075;-95
2024/01/07 03:52:13;;;;;;;17.67;8.87;;;-1.00;99.90;;;;;;4936468;29;20115;-95
2024/01/07 03:54:45;;;;;;;19.00;9.35;;;0.90;99.90;;;;;;4937701;29;20050;-96
2024/01/07 03:57:35;;;;;;;17.57;9.27;;;-1.00;99.90;;;;;;4937003;28;20099;-95
2024/01/07 04:00:00;;;;;;;17.53;9.20;;;-0.80;99.90;;;;;;4942662;29;20083;-94
2024/01/07 04:03:18;;;;;;;17.77;8.63;;;0.50;99.90;;;;;;4940480;29;20048;-96
2024/01/07 04:05:57;;;;;;;16.30;8.73;;;-0.80;99.90;;;;;;4936223;29;20107;-96
2024/01/07 04:08:23;;;;;;;18.30;9.40;;;-0.70;99.90;;;;;;4937909;29;20055;-95
2024/01/07 04:10:54;;;;;;;19.83;10.07;;;-1.00;99.90;;;;;;4947109;29;20554;-95
2024/01/07 04:13:23;;;;;;;17.13;9.50;;;1.40;99.90;;;;;;4956991;28;20373;-96
2024/01/07 04:15:52;;;;;;;21.50;10.53;;;-0.40;99.90;;;;;;4955489;28;20138;-96
2024/01/07 04:18:23;;;;;;;17.57;9.90;;;-1.50;99.90;;;;;;4955346;28;20052;-96
2024/01/07 04:21:09;;;;;;;19.90;10.40;;;-1.70;99.90;;;;;;4958766;29;20161;-95
2024/01/07 04:23:35;;;;;;;15.93;8.97;;;-1.10;99.90;;;;;;4961756;29;20191;-94
2024/01/07 04:26:00;;;;;;;19.53;9.93;;;-1.30;99.90;;;;;;4958566;28;20400;-94
2024/01/07 04:29:19;;;;;;;19.10;9.90;;;0.90;99.90;;;;;;4959165;28;20075;-94
2024/01/07 04:31:50;;;;;;;18.50;10.30;;;-0.90;99.90;;;;;;4961950;29;20108;-95
2024/01/07 04:34:17;;;;;;;19.00;10.50;;;0.40;99.90;;;;;;4957666;23;20099;-95
2024/01/07 04:40:40;;;;;;;19.93;10.30;;;-1.90;99.90;;;;;;4938816;29;20130;-94
2024/01/07 04:46:48;;;;;;;19.20;9.97;;;0.50;99.90;;;;;;4956964;28;20055;-94
2024/01/07 04:52:18;;;;;;;17.27;8.63;;;-1.00;99.90;;;;;;4916223;29;20048;-95
2024/01/07 04:54:44;;;;;;;15.70;8.50;;;0.30;99.90;;;;;;4935978;29;20048;-95
2024/01/07 04:57:29;;;;;;;15.67;7.57;;;-1.40;99.90;;;;;;4918922;29;20040;-95
2024/01/07 05:00:03;;;;;;;16.30;8.17;;;-1.10;99.90;;;;;;4919389;29;20040;-95
2024/01/07 05:02:29;;;;;;;15.05;7.80;;;-1.10;99.90;;;;;;4905843;29;20055;-96
2024/01/07 05:05:04;;;;;;;16.33;8.03;;;0.00;99.90;;;;;;4899976;29;20036;-95
2024/01/07 05:07:39;;;;;;;15.03;7.67;;;-1.10;99.90;;;;;;4900413;29;20379;-94
2024/01/07 05:10:05;;;;;;;15.90;7.67;;;-1.40;99.90;;;;;;4902351;29;20465;-96
2024/01/07 05:13:22;;;;;;;16.20;8.13;;;-1.10;99.90;;;;;;4918959;29;20621;-94
2024/01/07 05:15:53;;;;;;;15.87;8.03;;;-1.40;99.90;;;;;;4846484;29;20056;-95
2024/01/07 05:18:22;;;;;;;16.67;8.50;;;0.40;99.90;;;;;;4845977;29;20057;-94
2024/01/07 05:23:22;;;;;;;15.60;8.43;;;-1.10;99.90;;;;;;4956547;29;20058;-94
2024/01/07 05:25:47;;;;;;;15.70;7.87;;;-1.90;99.90;;;;;;4941728;29;20538;-95
2024/01/07 05:28:19;;;;;;;16.77;7.90;;;-1.40;99.90;;;;;;4941526;29;20077;-96
2024/01/07 05:37:05;;;;;;;14.93;7.23;;;0.40;99.90;;;;;;4989297;23;20063;-95
2024/01/07 05:39:30;;;;;;;14.47;7.30;;;-0.80;99.90;;;;;;4945539;28;20042;-95
2024/01/07 05:42:05;;;;;;;13.87;6.83;;;0.60;99.90;;;;;;4962702;28;20333;-95
2024/01/07 05:44:55;;;;;;;14.27;6.83;;;-1.60;99.90;;;;;;5060823;23;20138;-96
2024/01/07 05:47:20;;;;;;;13.60;5.87;;;-1.00;99.90;;;;;;4941978;29;20118;-95
2024/01/07 05:49:52;;;;;;;14.30;5.70;;;0.20;99.90;;;;;;4940912;29;20078;-95
2024/01/07 05:52:20;;;;;;;14.23;5.20;;;-0.70;99.90;;;;;;4945109;29;20047;-93
2024/01/07 05:54:46;;;;;;;11.40;5.07;;;-0.90;99.90;;;;;;4941125;29;20113;-95
2024/01/07 05:57:15;;;;;;;11.80;5.43;;;0.70;99.90;;;;;;4941116;29;20051;-94
2024/01/07 05:59:41;;;;;;;10.43;4.73;;;0.30;99.90;;;;;;4985317;23;20416;-93
2024/01/07 06:02:17;;;;;;;10.77;4.83;;;-1.50;99.90;;;;;;4974345;23;20047;31
2024/01/07 06:08:48;;;;;;;11.97;4.07;;;-1.60;99.90;;;;;;4843371;29;20053;-95
2024/01/07 06:11:20;;;;;;;21.93;7.70;;;-0.50;99.90;;;;;;4845619;29;20057;-96
2024/01/07 06:13:49;;;;;;;9.63;4.30;;;-1.50;99.90;;;;;;4851167;29;20045;-95
2024/01/07 06:16:14;;;;;;;11.00;4.57;;;-1.40;99.90;;;;;;4917159;23;20055;-94
2024/01/07 06:18:50;;;;;;;9.80;4.13;;;-0.40;99.90;;;;;;5219332;23;22674;-95
2024/01/07 06:21:20;;;;;;;11.27;3.83;;;-1.40;99.90;;;;;;4922619;29;20139;-95
2024/01/07 06:23:52;;;;;;;10.70;3.97;;;-1.00;99.90;;;;;;4921111;29;20458;-96
2024/01/07 06:26:18;;;;;;;11.10;4.30;;;-0.20;99.90;;;;;;4921414;29;20052;-96
2024/01/07 06:28:49;;;;;;;9.60;3.93;;;-1.40;99.90;;;;;;4920202;29;20103;-95
2024/01/07 06:31:15;;;;;;;9.33;3.57;;;-1.50;99.90;;;;;;4921910;29;20039;-96
2024/01/07 06:33:44;;;;;;;8.13;3.20;;;-1.60;99.90;;;;;;4961252;23;20051;-96
2024/01/07 06:36:43;;;;;;;9.07;3.40;;;-1.00;99.90;;;;;;4958543;29;20053;-95
2024/01/07 06:41:58;;;;;;;9.17;3.17;;;-0.80;99.90;;;;;;4933025;29;20056;-96
2024/01/07 06:44:27;;;;;;;8.60;3.00;;;-0.30;99.90;;;;;;4914259;29;20066;-94
2024/01/07 06:49:19;;;;;;;9.37;3.10;;;-1.10;99.90;;;;;;4999014;23;20566;-95
2024/01/07 06:51:51;;;;;;;9.07;3.53;;;0.60;99.90;;;;;;4939616;29;20051;-95
2024/01/07 06:54:19;;;;;;;9.57;3.20;;;-2.10;99.90;;;;;;4939502;29;20483;-95
2024/01/07 06:57:14;;;;;;;8.57;3.03;;;-0.10;99.90;;;;;;4930375;29;20184;-96
2024/01/07 06:59:40;;;;;;;8.70;3.27;;;-0.40;99.90;;;;;;4939963;29;20194;-95
2024/01/07 07:02:06;;;;;;;11.80;3.57;;;-1.30;99.90;;;;;;4939814;29;20570;-96
2024/01/07 07:04:31;;;;;;;9.67;3.10;;;0.10;99.90;;;;;;4955961;29;20058;-95
2024/01/07 07:11:01;;;;;;;9.27;2.97;;;0.30;99.90;;;;;;4883584;29;20060;-96
2024/01/07 07:13:35;;;;;;;9.83;3.00;;;-1.00;99.90;;;;;;4887035;29;20048;-95
2024/01/07 07:16:03;;;;;;;8.87;3.20;;;0.90;99.90;;;;;;4882407;29;20068;-96
2024/01/07 07:18:32;;;;;;;9.87;3.27;;;-1.10;99.90;;;;;;4882137;29;20048;-95
2024/01/07 07:21:30;;;;;;;8.50;2.90;;;-0.40;99.90;;;;;;4958154;23;20079;-96
2024/01/07 07:24:00;;;;;;;10.23;3.10;;;0.00;99.90;;;;;;4968951;23;20063;31
2024/01/07 07:31:24;;;;;;;8.53;3.27;;;-1.70;99.90;;;;;;4965515;28;20542;-96
2024/01/07 07:33:53;;;;;;;8.20;3.00;;;-2.30;99.90;;;;;;4926096;28;20043;-96
2024/01/07 07:36:46;;;;;;;10.10;3.33;;;-1.40;99.90;;;;;;4960015;28;20055;-94
2024/01/07 07:39:13;;;;;;;8.75;2.83;;;-1.20;99.90;;;;;;4867739;29;20048;-96
2024/01/07 07:42:12;;;;;;;8.53;2.90;;;-1.50;99.90;;;;;;4858442;29;20590;-95
2024/01/07 07:44:40;;;;;;;9.27;3.23;;;0.00;99.90;;;;;;4922915;29;20055;-95
2024/01/07 07:49:46;;;;;;;8.00;2.90;;;-1.30;99.90;;;;;;4962545;23;20134;-94
2024/01/07 07:58:46;;;;;;;8.40;2.80;;;-1.20;99.90;;;;;;4942257;23;20062;-96
2024/01/07 08:01:12;;;;;;;11.03;2.90;;;0.40;99.90;;;;;;4910243;29;20059;-91
2024/01/07 08:03:56;;;;;;;7.83;2.60;;;-1.60;99.90;;;;;;4940069;29;20054;-87
2024/01/07 08:06:22;;;;;;;;;;;-1.10;99.90;;;;;;4940596;29;20039;-87
2024/01/07 08:09:00;;;;;;;10.13;3.30;;;-1.40;99.90;;;;;;4904363;29;19931;-88
2024/01/07 08:11:32;;;;;;;9.43;2.93;;;-0.30;99.90;;;;;;4915758;29;20074;-90
2024/01/07 08:13:57;;;;;;;7.43;2.20;;;-0.20;99.90;;;;;;4940565;29;20138;-88
2024/01/07 08:16:23;;;;;;;7.57;2.47;;;-1.80;99.90;;;;;;4940478;29;20555;-87
2024/01/07 08:18:58;;;;;;;7.70;2.50;;;-1.60;99.90;;;;;;4939390;29;20097;-88
2024/01/07 08:21:33;;;;;;;10.40;2.63;;;0.30;99.90;;;;;;4940011;29;20130;-89
2024/01/07 08:24:05;;;;;;;7.80;2.60;;;-2.40;99.90;;;;;;4939986;29;20051;-87
2024/01/07 08:26:34;;;;;;;7.43;2.33;;;-1.70;99.90;;;;;;4939464;29;20484;-85
2024/01/07 08:29:10;;;;;;;9.53;2.80;;;-1.00;99.90;;;;;;4940109;29;20416;-85
2024/01/07 08:31:35;;;;;;;7.60;2.43;;;-2.20;99.90;;;;;;4946664;23;20055;-86
2024/01/07 08:34:01;;;;;;;8.77;2.67;;;-1.70;99.90;;;;;;4956408;28;20468;-86
2024/01/07 08:36:29;;;;;;;8.30;2.60;;;-1.70;99.90;;;;;;4956420;29;20490;-86
2024/01/07 08:38:55;;;;;;;9.83;3.03;;;-1.80;99.90;;;;;;4955113;29;20106;-86
2024/01/07 08:41:20;;;;;;;7.33;2.37;;;-1.70;99.90;;;;;;4955803;28;20047;-85
2024/01/07 08:43:46;;;;;;;8.23;2.50;;;-1.70;99.90;;;;;;4955753;28;20039;-85
2024/01/07 08:46:13;;;;;;;7.77;2.27;;;-0.50;99.90;;;;;;4954715;28;20050;-85
2024/01/07 08:48:41;;;;;;;7.17;2.27;;;-1.70;99.90;;;;;;4955508;28;20110;-85
2024/01/07 08:51:07;;;;;;;7.67;2.57;;;-1.70;99.90;;;;;;4955060;28;20062;-85
2024/01/07 08:53:33;;;;;;;8.63;2.60;;;-1.60;99.90;;;;;;4916812;29;20052;-85
2024/01/07 08:55:58;;;;;;;8.23;2.43;;;-1.60;99.90;;;;;;4917641;29;20468;-85
2024/01/07 08:58:24;;;;;;;6.80;2.53;;;-1.60;99.90;;;;;;4953095;29;20191;-85
2024/01/07 09:00:49;;;;;;;7.30;2.50;;;-1.50;99.90;;;;;;4954908;28;20047;-85
2024/01/07 09:03:15;;;;;;;7.67;2.60;;;-1.60;99.90;;;;;;4954939;29;20492;-85
2024/01/07 09:05:41;;;;;;;8.20;2.47;;;-1.50;99.90;;;;;;4954687;28;20403;-86
2024/01/07 09:08:07;;;;;;;7.60;2.30;;;-1.50;99.90;;;;;;4954294;28;20086;-88
2024/01/07 09:10:33;;;;;;;8.30;2.57;;;0.20;99.90;;;;;;4955622;28;20440;-87
2024/01/07 09:12:59;;;;;;;8.20;2.70;;;-0.50;99.90;;;;;;4932076;29;20119;-88
2024/01/07 09:15:25;;;;;;;8.07;2.60;;;-0.40;99.90;;;;;;4916635;29;20199;-88
2024/01/07 09:17:51;;;;;;;8.30;2.60;;;-1.40;99.90;;;;;;4941963;29;20170;-89
2024/01/07 09:20:17;;;;;;;9.00;2.60;;;-1.30;99.90;;;;;;4956481;28;20439;-88
2024/01/07 09:22:43;;;;;;;7.20;2.23;;;0.40;99.90;;;;;;4954891;28;20248;-89
2024/01/07 09:25:12;;;;;;;7.60;2.30;;;-0.70;99.90;;;;;;4955422;28;20499;-88
2024/01/07 09:27:37;;;;;;;7.43;2.40;;;-1.20;99.90;;;;;;4954510;28;20142;-88
2024/01/07 09:30:04;;;;;;;7.30;2.30;;;-0.50;99.90;;;;;;4951725;28;20050;-89
2024/01/07 09:32:29;;;;;;;7.13;2.30;;;-1.10;99.90;;;;;;4932785;28;20106;-88
2024/01/07 09:34:55;;;;;;;7.40;2.50;;;0.10;99.90;;;;;;4921850;29;20052;-91
2024/01/07 09:37:21;;;;;;;8.40;2.73;;;-0.90;99.90;;;;;;4918948;29;20139;-89
2024/01/07 09:39:47;;;;;;;8.53;2.63;;;-1.00;99.90;;;;;;4916480;29;20489;-89
2024/01/07 09:42:19;;;;;;;7.77;2.50;;;0.10;99.90;;;;;;4914902;29;20389;-89
2024/01/07 09:44:54;;;;;;;8.10;2.80;;;-1.10;99.90;;;;;;4916869;29;20039;-89
2024/01/07 09:47:32;;;;;;;8.87;2.40;;;-1.30;99.90;;;;;;4917343;29;20527;-89
2024/01/07 09:50:09;;;;;;;8.17;2.67;;;-1.10;99.90;;;;;;4915507;29;20059;-89
2024/01/07 09:52:35;;;;;;;7.13;2.37;;;-0.50;99.90;;;;;;4916499;29;20036;-89
2024/01/07 09:55:35;;;;;;;7.33;2.30;;;-1.00;99.90;;;;;;4916170;29;20131;-88
2024/01/07 09:58:04;;;;;;;8.63;2.63;;;-0.90;99.90;;;;;;4916216;29;20496;-88
2024/01/07 10:00:39;;;;;;;6.73;2.50;;;0.30;99.90;;;;;;4916389;29;20116;-89
2024/01/07 10:03:05;;;;;;;7.67;2.50;;;-0.80;99.90;;;;;;4924265;29;20048;-91
2024/01/07 10:05:39;;;;;;;7.63;2.40;;;-0.30;99.90;;;;;;4924521;29;20048;-90
2024/01/07 10:08:17;;;;;;;8.30;2.37;;;0.00;99.90;;;;;;4925299;28;20441;-91
2024/01/07 10:10:43;;;;;;;7.33;2.40;;;-1.60;99.90;;;;;;4925809;29;20062;-90
2024/01/07 10:13:10;;;;;;;8.40;2.50;;;-0.60;99.90;;;;;;4952540;28;20131;-91
2024/01/07 10:15:45;;;;;;;7.33;2.23;;;0.20;99.90;;;;;;4926236;29;20039;-91
2024/01/07 10:18:26;;;;;;;6.80;2.30;;;-0.40;99.90;;;;;;4949385;28;20127;-87
2024/01/07 10:20:52;;;;;;;8.37;2.30;;;0.70;99.90;;;;;;4935154;29;20415;-88
2024/01/07 10:23:38;;;;;;;7.00;2.10;;;0.90;99.90;;;;;;4935030;29;20077;-88
2024/01/07 10:26:05;;;;;;;7.47;2.10;;;1.00;99.90;;;;;;4936935;23;20055;-88
2024/01/07 10:28:31;;;;;;;6.20;2.00;;;-0.40;99.90;;;;;;4946797;28;20046;-88
2024/01/07 10:31:00;;;;;;;5.33;1.73;;;-0.30;99.90;;;;;;4945248;28;20414;-90
2024/01/07 10:33:38;;;;;;;6.77;2.10;;;0.90;99.90;;;;;;4938003;28;20089;-92
2024/01/07 10:36:06;;;;;;;5.97;1.97;;;1.60;99.90;;;;;;4939098;29;20130;-90
2024/01/07 10:38:35;;;;;;;5.27;1.80;;;-0.10;99.90;;;;;;4946551;28;20490;-91
2024/01/07 10:41:11;;;;;;;5.53;1.80;;;-0.40;99.90;;;;;;4956146;28;20047;-90
2024/01/07 10:43:50;;;;;;;6.17;1.93;;;-0.30;99.90;;;;;;4957761;28;20039;-90
2024/01/07 10:46:18;;;;;;;6.60;2.00;;;-0.40;99.90;;;;;;4956196;28;20038;-89
2024/01/07 10:49:04;;;;;;;7.77;2.20;;;-0.30;99.90;;;;;;4956954;28;20157;-89
2024/01/07 10:51:36;;;;;;;6.60;2.23;;;-0.30;99.90;;;;;;4957038;28;20047;-89
2024/01/07 10:54:07;;;;;;;6.60;2.13;;;-0.30;99.90;;;;;;4956330;28;20138;-89
2024/01/07 10:56:48;;;;;;;8.37;2.30;;;0.00;99.90;;;;;;4957115;28;20371;-89
2024/01/07 10:59:15;;;;;;;8.40;2.10;;;-0.20;99.90;;;;;;4956108;28;20051;-88
2024/01/07 11:01:40;;;;;;;7.20;2.23;;;-0.20;99.90;;;;;;4957074;28;20077;-90
2024/01/07 11:04:14;;;;;;;8.23;2.30;;;0.00;99.90;;;;;;4956545;28;20491;-90
2024/01/07 11:06:54;;;;;;;7.80;2.20;;;0.10;99.90;;;;;;4961678;28;20046;-89
2024/01/07 11:09:48;;;;;;;8.00;2.30;;;0.20;99.90;;;;;;4959688;28;20444;-91
2024/01/07 11:12:20;;;;;;;8.13;2.10;;;0.10;99.90;;;;;;4957158;28;20057;-91
2024/01/07 11:14:52;;;;;;;7.77;2.07;;;-0.20;99.90;;;;;;4954867;28;20088;-92
2024/01/07 11:17:45;;;;;;;7.70;2.30;;;-0.10;99.90;;;;;;4955586;28;20458;-91
2024/01/07 11:20:21;;;;;;;6.70;2.20;;;0.70;99.90;;;;;;4961244;28;20039;-90
2024/01/07 11:22:47;;;;;;;7.00;2.20;;;0.20;99.90;;;;;;4961227;28;20074;-91
2024/01/07 11:25:39;;;;;;;7.83;2.10;;;1.20;99.90;;;;;;4954614;28;20046;-90
2024/01/07 11:28:05;;;;;;;6.37;2.10;;;0.20;99.90;;;;;;4949901;28;20058;-91
2024/01/07 11:30:41;;;;;;;7.63;2.20;;;0.20;99.90;;;;;;4971817;23;20051;-89
2024/01/07 11:33:13;;;;;;;7.10;2.23;;;0.30;99.90;;;;;;4939523;29;20062;-89
2024/01/07 11:36:02;;;;;;;7.10;2.10;;;0.30;99.90;;;;;;4936698;29;20043;-87
2024/01/07 11:38:29;;;;;;;6.93;2.17;;;0.30;99.90;;;;;;4936889;28;20511;-88
2024/01/07 11:40:56;;;;;;;9.80;2.77;;;0.30;99.90;;;;;;4936548;29;20055;-88
2024/01/07 11:43:25;;;;;;;6.37;2.10;;;0.30;99.90;;;;;;4936123;28;20050;-88
2024/01/07 11:45:51;;;;;;;7.03;2.17;;;0.30;99.90;;;;;;4936255;28;20059;-88
2024/01/07 11:48:18;;;;;;;7.33;2.30;;;0.30;99.90;;;;;;4936028;29;20402;-88
2024/01/07 11:50:44;;;;;;;6.70;2.03;;;0.50;99.90;;;;;;4933499;29;20131;-91
2024/01/07 11:53:12;;;;;;;8.03;2.13;;;0.50;99.90;;;;;;4918167;29;20092;-89
2024/01/07 11:55:38;;;;;;;5.93;2.07;;;2.00;99.90;;;;;;4918161;29;20054;-90
2024/01/07 11:58:04;;;;;;;6.67;2.30;;;0.40;99.90;;;;;;4918642;29;20508;-91
2024/01/07 12:00:58;;;;;;;8.77;2.30;;;0.40;99.90;;;;;;4928454;23;20056;-90
2024/01/07 12:03:25;;;;;;;7.77;2.40;;;1.60;99.90;;;;;;4938615;29;20447;-90
2024/01/07 12:05:51;;;;;;;8.23;2.43;;;-0.10;99.90;;;;;;4938199;29;20055;-89
2024/01/07 12:08:23;;;;;;;7.97;2.50;;;0.70;99.90;;;;;;4938294;28;20456;-92
2024/01/07 12:11:00;;;;;;;7.10;2.50;;;2.90;99.90;;;;;;4939022;29;20062;-91
2024/01/07 12:13:26;;;;;;;8.50;2.73;;;0.70;99.90;;;;;;4937670;29;20527;-87
2024/01/07 12:15:52;;;;;;;7.63;2.70;;;0.20;99.90;;;;;;4932937;29;20391;-87
2024/01/07 12:18:25;;;;;;;6.90;2.47;;;2.30;99.90;;;;;;4932706;29;20043;-88
2024/01/07 12:20:59;;;;;;;7.20;2.50;;;0.30;99.90;;;;;;4936932;29;20043;-87
2024/01/07 12:23:28;;;;;;;8.30;2.60;;;0.20;99.90;;;;;;4953400;29;20098;-86
2024/01/07 12:26:23;;;;;;;8.57;3.00;;;-0.20;99.90;;;;;;4927455;29;20432;-87
2024/01/07 12:31:41;;;;;;;8.57;2.80;;;1.60;99.90;;;;;;4923773;23;20500;-89
2024/01/07 12:34:47;;;;;;;7.87;2.60;;;1.80;99.90;;;;;;4899277;29;20063;-90
2024/01/07 12:37:19;;;;;;;9.00;3.07;;;1.80;99.90;;;;;;4824399;29;20160;-90
2024/01/07 12:40:03;;;;;;;8.53;2.73;;;1.10;99.90;;;;;;4825344;29;20129;-90
2024/01/07 12:42:28;;;;;;;8.38;2.63;;;1.20;99.90;;;;;;4829071;29;20062;-92
2024/01/07 12:44:59;;;;;;;8.73;2.87;;;2.60;99.90;;;;;;4827054;29;20428;-91
2024/01/07 12:47:30;;;;;;;10.63;2.80;;;-0.70;99.90;;;;;;4827396;29;20085;-92
2024/01/07 12:50:05;;;;;;;8.73;3.03;;;2.10;99.90;;;;;;4827167;29;20119;-91
2024/01/07 12:52:40;;;;;;;9.80;3.00;;;0.80;99.90;;;;;;4827365;29;20141;-93
2024/01/07 12:55:41;;;;;;;10.43;3.10;;;0.70;99.90;;;;;;4885657;29;20143;-92
2024/01/07 12:58:45;;;;;;;8.47;3.30;;;2.00;99.90;;;;;;4902640;29;20523;-94
2024/01/07 13:01:11;;;;;;;8.88;3.17;;;0.00;99.90;;;;;;4907517;23;20079;-92
2024/01/07 13:03:40;;;;;;;10.10;3.60;;;0.60;99.90;;;;;;4921079;29;20575;-94
2024/01/07 13:06:09;;;;;;;11.13;3.93;;;1.00;99.90;;;;;;4920359;29;20123;-92
2024/01/07 13:08:40;;;;;;;10.10;3.33;;;0.40;99.90;;;;;;4921357;29;20081;-92
2024/01/07 13:11:20;;;;;;;10.73;4.00;;;3.30;99.90;;;;;;4921539;29;20502;-92
2024/01/07 13:13:48;;;;;;;9.17;3.30;;;1.00;99.90;;;;;;4920159;29;20356;-90
2024/01/07 13:16:25;;;;;;;8.53;3.20;;;0.60;99.90;;;;;;4919619;29;20044;-88
2024/01/07 13:19:05;;;;;;;9.37;3.47;;;2.10;99.90;;;;;;4920167;29;20078;-88
2024/01/07 13:21:40;;;;;;;8.53;3.33;;;1.00;99.90;;;;;;4919467;29;20043;-87
2024/01/07 13:24:06;;;;;;;10.10;3.47;;;1.20;99.90;;;;;;4918683;29;20059;-87
2024/01/07 13:26:31;;;;;;;8.00;3.10;;;3.50;99.90;;;;;;4919337;29;20055;-89
2024/01/07 13:28:57;;;;;;;10.37;3.33;;;1.50;99.90;;;;;;4917690;29;20066;-89
2024/01/07 13:31:23;;;;;;;9.80;3.70;;;1.40;99.90;;;;;;4919904;29;20058;-87
2024/01/07 13:33:49;;;;;;;10.40;3.70;;;1.20;99.90;;;;;;4919808;29;20059;-88
2024/01/07 13:36:14;;;;;;;10.27;3.80;;;0.90;99.90;;;;;;4919898;29;20050;-90
2024/01/07 13:38:41;;;;;;;10.77;3.83;;;1.00;99.90;;;;;;4920351;29;20452;-88
2024/01/07 13:41:08;;;;;;;10.67;3.80;;;1.00;99.90;;;;;;4919251;29;20103;-89
2024/01/07 13:43:37;;;;;;;9.43;3.67;;;0.90;99.90;;;;;;4919854;29;20047;-89
2024/01/07 13:46:02;;;;;;;9.83;4.10;;;0.80;99.90;;;;;;4919399;29;20121;-86
2024/01/07 13:48:29;;;;;;;9.93;3.60;;;0.70;99.90;;;;;;4914419;29;20047;-86
2024/01/07 13:50:55;;;;;;;9.40;3.80;;;0.60;99.90;;;;;;4919110;29;20440;-87
2024/01/07 13:53:21;;;;;;;11.13;4.07;;;0.40;99.90;;;;;;4916602;29;20058;-87
2024/01/07 13:55:46;;;;;;;10.30;4.07;;;0.30;99.90;;;;;;4915507;29;20047;-87
2024/01/07 13:58:12;;;;;;;10.93;4.37;;;0.30;99.90;;;;;;4928857;29;20392;-86
2024/01/07 14:00:38;;;;;;;11.03;4.40;;;0.20;99.90;;;;;;4915862;29;20099;-87
2024/01/07 14:03:04;;;;;;;11.47;4.03;;;0.20;99.90;;;;;;4928814;29;20075;-87
2024/01/07 14:05:30;;;;;;;10.33;4.03;;;0.20;99.90;;;;;;4919656;29;20443;-87
2024/01/07 14:07:55;;;;;;;10.93;4.10;;;0.20;99.90;;;;;;4916059;29;20135;-87
2024/01/07 14:10:21;;;;;;;10.87;4.30;;;0.30;99.90;;;;;;4915393;29;20059;-87
2024/01/07 14:12:47;;;;;;;12.00;4.57;;;0.30;99.90;;;;;;4912543;29;20396;-85
2024/01/07 14:15:13;;;;;;;11.13;4.10;;;0.30;99.90;;;;;;4914335;29;20130;-88
2024/01/07 14:17:39;;;;;;;10.37;4.10;;;0.40;99.90;;;;;;4910258;29;20183;-87
2024/01/07 14:20:07;;;;;;;9.20;3.60;;;0.30;99.90;;;;;;4918228;29;20047;-87
2024/01/07 14:22:33;;;;;;;10.60;4.50;;;0.30;99.90;;;;;;4918411;29;20138;-88
2024/01/07 14:25:01;;;;;;;10.43;4.63;;;0.20;99.90;;;;;;4914957;29;20541;-86
2024/01/07 14:27:27;;;;;;;10.60;4.30;;;0.20;99.90;;;;;;4913972;29;20385;-87
2024/01/07 14:29:52;;;;;;;11.17;4.20;;;0.20;99.90;;;;;;4914417;29;20048;-86
2024/01/07 14:32:18;;;;;;;10.23;4.27;;;1.40;99.90;;;;;;4911552;29;20052;-88